sensor_id;sensor_type;location;lat;lon;timestamp;temperature;humidity
12408;DHT22;6268;48.188;17.134;2023-04-09T00:01:15;5.60;99.90
12408;DHT22;6268;48.188;17.134;2023-04-09T00:03:45;5.50;99.90
12408;DHT22;6268;48.188;17.134;2023-04-09T00:06:14;5.50;99.90
12408;DHT22;6268;48.188;17.134;2023-04-09T00:08:43;5.50;99.90
12408;DHT22;6268;48.188;17.134;2023-04-09T00:11:11;5.40;99.90
12408;DHT22;6268;48.188;17.134;2023-04-09T00:13:40;5.40;99.90
12408;DHT22;6268;48.188;17.134;2023-04-09T00:16:09;5.40;99.90
12408;DHT22;6268;48.188;17.134;2023-04-09T00:18:38;5.30;99.90
12408;DHT22;6268;48.188;17.134;2023-04-09T00:21:08;5.40;99.90
12408;DHT22;6268;48.188;17.134;2023-04-09T00:23:37;5.40;99.90
12408;DHT22;6268;48.188;17.134;2023-04-09T00:26:06;5.40;99.90
12408;DHT22;6268;48.188;17.134;2023-04-09T00:28:34;5.40;99.90
12408;DHT22;6268;48.188;17.134;2023-04-09T00:31:03;5.40;99.90
12408;DHT22;6268;48.188;17.134;2023-04-09T00:33:32;5.30;99.90
12408;DHT22;6268;48.188;17.134;2023-04-09T00:36:01;5.20;99.90
12408;DHT22;6268;48.188;17.134;2023-04-09T00:38:31;5.20;99.90
12408;DHT22;6268;48.188;17.134;2023-04-09T00:41:00;5.20;99.90
12408;DHT22;6268;48.188;17.134;2023-04-09T00:43:29;5.10;99.90
12408;DHT22;6268;48.188;17.134;2023-04-09T00:45:58;5.10;99.90
12408;DHT22;6268;48.188;17.134;2023-04-09T00:48:28;5.20;99.90
12408;DHT22;6268;48.188;17.134;2023-04-09T00:50:57;5.20;99.90
12408;DHT22;6268;48.188;17.134;2023-04-09T00:53:25;5.20;99.90
12408;DHT22;6268;48.188;17.134;2023-04-09T00:55:56;5.20;99.90
12408;DHT22;6268;48.188;17.134;2023-04-09T00:58:25;5.20;99.90
12408;DHT22;6268;48.188;17.134;2023-04-09T01:00:54;5.20;99.90
12408;DHT22;6268;48.188;17.134;2023-04-09T01:03:23;5.20;99.90
12408;DHT22;6268;48.188;17.134;2023-04-09T01:05:59;5.10;99.90
12408;DHT22;6268;48.188;17.134;2023-04-09T01:08:40;5.10;99.90
12408;DHT22;6268;48.188;17.134;2023-04-09T01:11:33;5.10;99.90
12408;DHT22;6268;48.188;17.134;2023-04-09T01:14:11;5.00;99.90
12408;DHT22;6268;48.188;17.134;2023-04-09T01:16:53;5.00;99.90
12408;DHT22;6268;48.188;17.134;2023-04-09T01:19:38;5.00;99.90
12408;DHT22;6268;48.188;17.134;2023-04-09T01:22:24;5.00;99.90
12408;DHT22;6268;48.188;17.134;2023-04-09T01:25:03;5.00;99.90
12408;DHT22;6268;48.188;17.134;2023-04-09T01:27:54;5.00;99.90
12408;DHT22;6268;48.188;17.134;2023-04-09T01:30:48;4.90;99.90
12408;DHT22;6268;48.188;17.134;2023-04-09T01:33:19;5.00;99.90
12408;DHT22;6268;48.188;17.134;2023-04-09T01:35:49;5.00;99.90
12408;DHT22;6268;48.188;17.134;2023-04-09T01:38:21;4.90;99.90
12408;DHT22;6268;48.188;17.134;2023-04-09T01:40:51;4.90;99.90
12408;DHT22;6268;48.188;17.134;2023-04-09T01:43:23;5.00;99.90
12408;DHT22;6268;48.188;17.134;2023-04-09T01:45:53;5.00;99.90
12408;DHT22;6268;48.188;17.134;2023-04-09T01:48:23;5.00;99.90
12408;DHT22;6268;48.188;17.134;2023-04-09T01:50:53;4.90;99.90
12408;DHT22;6268;48.188;17.134;2023-04-09T01:53:21;4.80;99.90
12408;DHT22;6268;48.188;17.134;2023-04-09T01:55:56;4.80;99.90
12408;DHT22;6268;48.188;17.134;2023-04-09T01:58:28;4.80;99.90
12408;DHT22;6268;48.188;17.134;2023-04-09T02:01:04;4.80;99.90
12408;DHT22;6268;48.188;17.134;2023-04-09T02:03:43;4.80;99.90
12408;DHT22;6268;48.188;17.134;2023-04-09T02:06:22;4.80;99.90
12408;DHT22;6268;48.188;17.134;2023-04-09T02:09:00;4.80;99.90
12408;DHT22;6268;48.188;17.134;2023-04-09T02:11:32;4.80;99.90
12408;DHT22;6268;48.188;17.134;2023-04-09T02:14:03;4.80;99.90
12408;DHT22;6268;48.188;17.134;2023-04-09T02:16:35;4.80;99.90
12408;DHT22;6268;48.188;17.134;2023-04-09T02:19:04;4.90;99.90
12408;DHT22;6268;48.188;17.134;2023-04-09T02:21:33;4.90;99.90
12408;DHT22;6268;48.188;17.134;2023-04-09T02:24:02;4.90;99.90
12408;DHT22;6268;48.188;17.134;2023-04-09T02:26:31;4.80;99.90
12408;DHT22;6268;48.188;17.134;2023-04-09T02:28:59;4.80;99.90
12408;DHT22;6268;48.188;17.134;2023-04-09T02:31:29;4.80;99.90
12408;DHT22;6268;48.188;17.134;2023-04-09T02:33:59;4.80;99.90
12408;DHT22;6268;48.188;17.134;2023-04-09T02:36:27;4.80;99.90
12408;DHT22;6268;48.188;17.134;2023-04-09T02:38:57;4.80;99.90
12408;DHT22;6268;48.188;17.134;2023-04-09T02:41:26;4.80;99.90
12408;DHT22;6268;48.188;17.134;2023-04-09T02:43:54;4.80;99.90
12408;DHT22;6268;48.188;17.134;2023-04-09T02:46:23;4.80;99.90
12408;DHT22;6268;48.188;17.134;2023-04-09T02:48:53;4.80;99.90
12408;DHT22;6268;48.188;17.134;2023-04-09T02:51:22;4.80;99.90
12408;DHT22;6268;48.188;17.134;2023-04-09T02:53:51;4.80;99.90
12408;DHT22;6268;48.188;17.134;2023-04-09T02:56:19;4.90;99.90
12408;DHT22;6268;48.188;17.134;2023-04-09T02:58:48;4.90;99.90
12408;DHT22;6268;48.188;17.134;2023-04-09T03:01:20;5.00;99.90
12408;DHT22;6268;48.188;17.134;2023-04-09T03:03:49;5.00;99.90
12408;DHT22;6268;48.188;17.134;2023-04-09T03:06:19;5.00;99.90
12408;DHT22;6268;48.188;17.134;2023-04-09T03:08:48;5.00;99.90
12408;DHT22;6268;48.188;17.134;2023-04-09T03:11:17;5.00;99.90
12408;DHT22;6268;48.188;17.134;2023-04-09T03:13:45;5.00;99.90
12408;DHT22;6268;48.188;17.134;2023-04-09T03:16:14;5.10;99.90
12408;DHT22;6268;48.188;17.134;2023-04-09T03:18:43;5.10;99.90
12408;DHT22;6268;48.188;17.134;2023-04-09T03:21:12;5.10;99.90
12408;DHT22;6268;48.188;17.134;2023-04-09T03:23:42;5.00;99.90
12408;DHT22;6268;48.188;17.134;2023-04-09T03:26:11;5.00;99.90
12408;DHT22;6268;48.188;17.134;2023-04-09T03:28:39;5.00;99.90
12408;DHT22;6268;48.188;17.134;2023-04-09T03:31:08;5.00;99.90
12408;DHT22;6268;48.188;17.134;2023-04-09T03:33:37;5.00;99.90
12408;DHT22;6268;48.188;17.134;2023-04-09T03:36:06;5.00;99.90
12408;DHT22;6268;48.188;17.134;2023-04-09T03:38:35;5.10;99.90
12408;DHT22;6268;48.188;17.134;2023-04-09T03:41:05;5.10;99.90
12408;DHT22;6268;48.188;17.134;2023-04-09T03:43:33;5.10;99.90
12408;DHT22;6268;48.188;17.134;2023-04-09T03:46:10;5.10;99.90
12408;DHT22;6268;48.188;17.134;2023-04-09T03:48:39;5.10;99.90
12408;DHT22;6268;48.188;17.134;2023-04-09T03:51:10;5.00;99.90
12408;DHT22;6268;48.188;17.134;2023-04-09T03:53:40;5.10;99.90
12408;DHT22;6268;48.188;17.134;2023-04-09T03:56:10;5.10;99.90
12408;DHT22;6268;48.188;17.134;2023-04-09T03:58:39;5.10;99.90
12408;DHT22;6268;48.188;17.134;2023-04-09T04:01:07;5.10;99.90
12408;DHT22;6268;48.188;17.134;2023-04-09T04:03:36;5.10;99.90
12408;DHT22;6268;48.188;17.134;2023-04-09T04:06:05;5.10;99.90
12408;DHT22;6268;48.188;17.134;2023-04-09T04:08:34;5.00;99.90
12408;DHT22;6268;48.188;17.134;2023-04-09T04:11:03;5.00;99.90
12408;DHT22;6268;48.188;17.134;2023-04-09T04:13:33;5.10;99.90
12408;DHT22;6268;48.188;17.134;2023-04-09T04:16:06;5.10;99.90
12408;DHT22;6268;48.188;17.134;2023-04-09T04:18:36;5.10;99.90
12408;DHT22;6268;48.188;17.134;2023-04-09T04:21:05;5.20;99.90
12408;DHT22;6268;48.188;17.134;2023-04-09T04:23:40;5.20;99.90
12408;DHT22;6268;48.188;17.134;2023-04-09T04:26:09;5.20;99.90
12408;DHT22;6268;48.188;17.134;2023-04-09T04:28:41;5.20;99.90
12408;DHT22;6268;48.188;17.134;2023-04-09T04:31:10;5.30;99.90
12408;DHT22;6268;48.188;17.134;2023-04-09T04:33:41;5.20;99.90
12408;DHT22;6268;48.188;17.134;2023-04-09T04:36:11;5.30;99.90
12408;DHT22;6268;48.188;17.134;2023-04-09T04:38:40;5.30;99.90
12408;DHT22;6268;48.188;17.134;2023-04-09T04:41:10;5.30;99.90
12408;DHT22;6268;48.188;17.134;2023-04-09T04:43:40;5.40;99.90
12408;DHT22;6268;48.188;17.134;2023-04-09T04:46:09;5.40;99.90
12408;DHT22;6268;48.188;17.134;2023-04-09T04:48:37;5.40;99.90
12408;DHT22;6268;48.188;17.134;2023-04-09T04:51:06;5.40;99.90
12408;DHT22;6268;48.188;17.134;2023-04-09T04:53:35;5.40;99.90
12408;DHT22;6268;48.188;17.134;2023-04-09T04:56:04;5.40;99.90
12408;DHT22;6268;48.188;17.134;2023-04-09T04:58:33;5.40;99.90
12408;DHT22;6268;48.188;17.134;2023-04-09T05:01:03;5.40;99.90
12408;DHT22;6268;48.188;17.134;2023-04-09T05:03:32;5.40;99.90
12408;DHT22;6268;48.188;17.134;2023-04-09T05:06:00;5.40;99.90
12408;DHT22;6268;48.188;17.134;2023-04-09T05:08:29;5.40;99.90
12408;DHT22;6268;48.188;17.134;2023-04-09T05:10:58;5.40;99.90
12408;DHT22;6268;48.188;17.134;2023-04-09T05:13:26;5.50;99.90
12408;DHT22;6268;48.188;17.134;2023-04-09T05:15:55;5.60;99.90
12408;DHT22;6268;48.188;17.134;2023-04-09T05:18:25;5.60;99.90
12408;DHT22;6268;48.188;17.134;2023-04-09T05:20:54;5.60;99.90
12408;DHT22;6268;48.188;17.134;2023-04-09T05:23:23;5.50;99.90
12408;DHT22;6268;48.188;17.134;2023-04-09T05:25:51;5.60;99.90
12408;DHT22;6268;48.188;17.134;2023-04-09T05:28:20;5.60;99.90
12408;DHT22;6268;48.188;17.134;2023-04-09T05:30:49;5.60;99.90
12408;DHT22;6268;48.188;17.134;2023-04-09T05:33:17;5.70;99.90
12408;DHT22;6268;48.188;17.134;2023-04-09T05:35:49;5.80;99.90
12408;DHT22;6268;48.188;17.134;2023-04-09T05:38:17;5.80;99.90
12408;DHT22;6268;48.188;17.134;2023-04-09T05:40:46;5.80;99.90
12408;DHT22;6268;48.188;17.134;2023-04-09T05:43:15;5.80;99.90
12408;DHT22;6268;48.188;17.134;2023-04-09T05:45:43;5.80;99.90
12408;DHT22;6268;48.188;17.134;2023-04-09T05:48:12;5.80;99.90
12408;DHT22;6268;48.188;17.134;2023-04-09T05:50:41;6.00;99.90
12408;DHT22;6268;48.188;17.134;2023-04-09T05:53:21;6.00;99.90
12408;DHT22;6268;48.188;17.134;2023-04-09T05:55:50;6.10;99.90
12408;DHT22;6268;48.188;17.134;2023-04-09T05:58:20;6.10;99.90
12408;DHT22;6268;48.188;17.134;2023-04-09T06:00:48;6.10;99.90
12408;DHT22;6268;48.188;17.134;2023-04-09T06:03:18;6.20;99.90
12408;DHT22;6268;48.188;17.134;2023-04-09T06:05:47;6.30;99.90
12408;DHT22;6268;48.188;17.134;2023-04-09T06:08:16;6.30;99.90
12408;DHT22;6268;48.188;17.134;2023-04-09T06:10:46;6.40;99.90
12408;DHT22;6268;48.188;17.134;2023-04-09T06:13:15;6.40;99.90
12408;DHT22;6268;48.188;17.134;2023-04-09T06:15:44;6.50;99.90
12408;DHT22;6268;48.188;17.134;2023-04-09T06:18:12;6.60;99.90
12408;DHT22;6268;48.188;17.134;2023-04-09T06:20:41;6.70;99.90
12408;DHT22;6268;48.188;17.134;2023-04-09T06:23:10;6.80;99.90
12408;DHT22;6268;48.188;17.134;2023-04-09T06:25:39;6.90;99.90
12408;DHT22;6268;48.188;17.134;2023-04-09T06:28:09;7.00;99.90
12408;DHT22;6268;48.188;17.134;2023-04-09T06:30:38;7.10;99.90
12408;DHT22;6268;48.188;17.134;2023-04-09T06:33:07;7.20;99.90
12408;DHT22;6268;48.188;17.134;2023-04-09T06:35:36;7.20;99.90
12408;DHT22;6268;48.188;17.134;2023-04-09T06:38:04;7.30;99.90
12408;DHT22;6268;48.188;17.134;2023-04-09T06:40:35;7.50;99.90
12408;DHT22;6268;48.188;17.134;2023-04-09T06:43:04;7.40;99.90
12408;DHT22;6268;48.188;17.134;2023-04-09T06:45:35;7.50;99.90
12408;DHT22;6268;48.188;17.134;2023-04-09T06:48:07;7.70;99.90
12408;DHT22;6268;48.188;17.134;2023-04-09T06:50:35;7.70;99.90
12408;DHT22;6268;48.188;17.134;2023-04-09T06:53:05;7.90;99.90
12408;DHT22;6268;48.188;17.134;2023-04-09T06:55:34;7.90;99.90
12408;DHT22;6268;48.188;17.134;2023-04-09T06:58:03;7.90;99.90
12408;DHT22;6268;48.188;17.134;2023-04-09T07:00:31;7.90;99.90
12408;DHT22;6268;48.188;17.134;2023-04-09T07:03:02;8.00;99.90
12408;DHT22;6268;48.188;17.134;2023-04-09T07:05:31;8.00;99.90
12408;DHT22;6268;48.188;17.134;2023-04-09T07:08:00;8.20;99.90
12408;DHT22;6268;48.188;17.134;2023-04-09T07:10:30;8.40;99.90
12408;DHT22;6268;48.188;17.134;2023-04-09T07:12:59;8.40;99.90
12408;DHT22;6268;48.188;17.134;2023-04-09T07:15:27;8.30;99.90
12408;DHT22;6268;48.188;17.134;2023-04-09T07:17:56;8.20;99.90
12408;DHT22;6268;48.188;17.134;2023-04-09T07:20:26;8.30;99.90
12408;DHT22;6268;48.188;17.134;2023-04-09T07:22:55;8.30;99.90
12408;DHT22;6268;48.188;17.134;2023-04-09T07:25:24;8.40;99.90
12408;DHT22;6268;48.188;17.134;2023-04-09T07:27:52;8.40;99.90
12408;DHT22;6268;48.188;17.134;2023-04-09T07:30:21;8.40;99.90
12408;DHT22;6268;48.188;17.134;2023-04-09T07:32:50;8.50;99.90
12408;DHT22;6268;48.188;17.134;2023-04-09T07:35:19;8.60;99.90
12408;DHT22;6268;48.188;17.134;2023-04-09T07:37:50;8.60;99.90
12408;DHT22;6268;48.188;17.134;2023-04-09T07:40:18;8.50;99.90
12408;DHT22;6268;48.188;17.134;2023-04-09T07:42:47;8.40;99.90
12408;DHT22;6268;48.188;17.134;2023-04-09T07:45:17;8.30;99.90
12408;DHT22;6268;48.188;17.134;2023-04-09T07:47:45;8.30;99.90
12408;DHT22;6268;48.188;17.134;2023-04-09T07:50:14;8.40;99.90
12408;DHT22;6268;48.188;17.134;2023-04-09T07:52:43;8.50;99.90
12408;DHT22;6268;48.188;17.134;2023-04-09T07:55:13;8.40;99.90
12408;DHT22;6268;48.188;17.134;2023-04-09T07:57:44;8.40;99.90
12408;DHT22;6268;48.188;17.134;2023-04-09T08:00:15;8.40;99.90
12408;DHT22;6268;48.188;17.134;2023-04-09T08:02:44;8.20;99.90
12408;DHT22;6268;48.188;17.134;2023-04-09T08:05:13;8.30;99.90
12408;DHT22;6268;48.188;17.134;2023-04-09T08:07:42;8.40;99.90
12408;DHT22;6268;48.188;17.134;2023-04-09T08:10:12;8.50;99.90
12408;DHT22;6268;48.188;17.134;2023-04-09T08:12:43;8.40;99.90
12408;DHT22;6268;48.188;17.134;2023-04-09T08:15:12;8.30;99.90
12408;DHT22;6268;48.188;17.134;2023-04-09T08:17:40;8.40;99.90
12408;DHT22;6268;48.188;17.134;2023-04-09T08:20:10;8.60;99.90
12408;DHT22;6268;48.188;17.134;2023-04-09T08:22:39;8.40;99.90
12408;DHT22;6268;48.188;17.134;2023-04-09T08:25:08;8.60;99.90
12408;DHT22;6268;48.188;17.134;2023-04-09T08:27:38;8.70;99.90
12408;DHT22;6268;48.188;17.134;2023-04-09T08:30:08;8.70;99.90
12408;DHT22;6268;48.188;17.134;2023-04-09T08:32:38;8.80;99.90
12408;DHT22;6268;48.188;17.134;2023-04-09T08:35:07;8.90;99.90
12408;DHT22;6268;48.188;17.134;2023-04-09T08:37:37;9.00;99.90
12408;DHT22;6268;48.188;17.134;2023-04-09T08:40:07;9.10;99.90
12408;DHT22;6268;48.188;17.134;2023-04-09T08:42:43;8.90;99.90
12408;DHT22;6268;48.188;17.134;2023-04-09T08:45:12;8.80;99.90
12408;DHT22;6268;48.188;17.134;2023-04-09T08:47:42;8.80;99.90
12408;DHT22;6268;48.188;17.134;2023-04-09T08:50:13;8.60;99.90
12408;DHT22;6268;48.188;17.134;2023-04-09T08:52:42;8.40;99.90
12408;DHT22;6268;48.188;17.134;2023-04-09T08:55:14;8.30;99.90
12408;DHT22;6268;48.188;17.134;2023-04-09T08:57:44;8.30;99.90
12408;DHT22;6268;48.188;17.134;2023-04-09T09:00:13;8.50;99.90
12408;DHT22;6268;48.188;17.134;2023-04-09T09:03:03;8.50;99.90
12408;DHT22;6268;48.188;17.134;2023-04-09T09:05:37;8.60;99.90
12408;DHT22;6268;48.188;17.134;2023-04-09T09:08:08;8.60;99.90
12408;DHT22;6268;48.188;17.134;2023-04-09T09:10:39;8.50;99.90
12408;DHT22;6268;48.188;17.134;2023-04-09T09:13:17;8.30;99.90
12408;DHT22;6268;48.188;17.134;2023-04-09T09:15:50;8.30;99.90
12408;DHT22;6268;48.188;17.134;2023-04-09T09:18:37;8.30;99.90
12408;DHT22;6268;48.188;17.134;2023-04-09T09:21:10;8.40;99.90
12408;DHT22;6268;48.188;17.134;2023-04-09T09:23:39;8.50;99.90
12408;DHT22;6268;48.188;17.134;2023-04-09T09:26:12;8.60;99.90
12408;DHT22;6268;48.188;17.134;2023-04-09T09:28:44;8.60;99.90
12408;DHT22;6268;48.188;17.134;2023-04-09T09:31:15;8.50;99.90
12408;DHT22;6268;48.188;17.134;2023-04-09T09:33:45;8.50;99.90
12408;DHT22;6268;48.188;17.134;2023-04-09T09:36:14;8.50;99.90
12408;DHT22;6268;48.188;17.134;2023-04-09T09:38:54;8.50;99.90
12408;DHT22;6268;48.188;17.134;2023-04-09T09:41:24;8.40;99.90
12408;DHT22;6268;48.188;17.134;2023-04-09T09:43:54;8.60;99.90
12408;DHT22;6268;48.188;17.134;2023-04-09T09:46:24;8.80;99.90
12408;DHT22;6268;48.188;17.134;2023-04-09T09:48:55;9.00;99.90
12408;DHT22;6268;48.188;17.134;2023-04-09T09:51:25;9.10;99.90
12408;DHT22;6268;48.188;17.134;2023-04-09T09:53:55;9.10;99.90
12408;DHT22;6268;48.188;17.134;2023-04-09T09:56:29;8.90;99.90
12408;DHT22;6268;48.188;17.134;2023-04-09T09:59:06;9.00;99.90
12408;DHT22;6268;48.188;17.134;2023-04-09T10:01:40;8.90;99.90
12408;DHT22;6268;48.188;17.134;2023-04-09T10:04:13;8.80;99.90
12408;DHT22;6268;48.188;17.134;2023-04-09T10:06:44;9.00;99.90
12408;DHT22;6268;48.188;17.134;2023-04-09T10:09:13;9.10;99.90
12408;DHT22;6268;48.188;17.134;2023-04-09T10:11:43;9.10;99.90
12408;DHT22;6268;48.188;17.134;2023-04-09T10:14:15;9.20;99.90
12408;DHT22;6268;48.188;17.134;2023-04-09T10:16:46;9.30;99.90
12408;DHT22;6268;48.188;17.134;2023-04-09T10:19:14;9.10;99.90
12408;DHT22;6268;48.188;17.134;2023-04-09T10:21:49;9.30;99.90
12408;DHT22;6268;48.188;17.134;2023-04-09T10:24:21;9.20;99.90
12408;DHT22;6268;48.188;17.134;2023-04-09T10:26:53;9.30;99.90
12408;DHT22;6268;48.188;17.134;2023-04-09T10:29:28;9.40;99.90
12408;DHT22;6268;48.188;17.134;2023-04-09T10:32:03;9.50;99.90
12408;DHT22;6268;48.188;17.134;2023-04-09T10:34:35;9.50;99.90
12408;DHT22;6268;48.188;17.134;2023-04-09T10:37:06;9.60;99.90
12408;DHT22;6268;48.188;17.134;2023-04-09T10:39:39;9.60;99.90
12408;DHT22;6268;48.188;17.134;2023-04-09T10:42:13;9.70;99.90
12408;DHT22;6268;48.188;17.134;2023-04-09T10:45:03;9.90;99.90
12408;DHT22;6268;48.188;17.134;2023-04-09T10:47:35;10.00;99.90
12408;DHT22;6268;48.188;17.134;2023-04-09T10:50:19;10.10;99.90
12408;DHT22;6268;48.188;17.134;2023-04-09T10:52:52;10.10;99.90
12408;DHT22;6268;48.188;17.134;2023-04-09T10:55:35;10.20;99.90
12408;DHT22;6268;48.188;17.134;2023-04-09T10:58:07;10.10;99.90
12408;DHT22;6268;48.188;17.134;2023-04-09T11:00:42;9.90;99.90
12408;DHT22;6268;48.188;17.134;2023-04-09T11:03:22;9.70;99.90
12408;DHT22;6268;48.188;17.134;2023-04-09T11:05:57;9.70;99.90
12408;DHT22;6268;48.188;17.134;2023-04-09T11:08:29;9.80;99.90
12408;DHT22;6268;48.188;17.134;2023-04-09T11:10:59;9.90;99.90
12408;DHT22;6268;48.188;17.134;2023-04-09T11:13:31;10.00;99.90
12408;DHT22;6268;48.188;17.134;2023-04-09T11:16:02;10.10;99.90
12408;DHT22;6268;48.188;17.134;2023-04-09T11:18:33;9.70;99.90
12408;DHT22;6268;48.188;17.134;2023-04-09T11:21:03;9.60;99.90
12408;DHT22;6268;48.188;17.134;2023-04-09T11:23:32;9.50;99.90
12408;DHT22;6268;48.188;17.134;2023-04-09T11:26:02;9.40;99.90
12408;DHT22;6268;48.188;17.134;2023-04-09T11:28:33;9.40;99.90
12408;DHT22;6268;48.188;17.134;2023-04-09T11:31:05;9.60;99.90
12408;DHT22;6268;48.188;17.134;2023-04-09T11:33:34;9.90;99.90
12408;DHT22;6268;48.188;17.134;2023-04-09T11:36:04;9.90;99.90
12408;DHT22;6268;48.188;17.134;2023-04-09T11:38:35;10.00;99.90
12408;DHT22;6268;48.188;17.134;2023-04-09T11:41:04;9.90;99.90
12408;DHT22;6268;48.188;17.134;2023-04-09T11:43:35;9.80;99.90
12408;DHT22;6268;48.188;17.134;2023-04-09T11:46:05;9.90;99.90
12408;DHT22;6268;48.188;17.134;2023-04-09T11:48:35;9.80;99.90
12408;DHT22;6268;48.188;17.134;2023-04-09T11:51:04;9.80;99.90
12408;DHT22;6268;48.188;17.134;2023-04-09T11:53:36;9.80;99.90
12408;DHT22;6268;48.188;17.134;2023-04-09T11:56:05;9.90;99.90
12408;DHT22;6268;48.188;17.134;2023-04-09T11:58:34;10.00;99.90
12408;DHT22;6268;48.188;17.134;2023-04-09T12:01:05;10.00;99.90
12408;DHT22;6268;48.188;17.134;2023-04-09T12:03:33;9.90;99.90
12408;DHT22;6268;48.188;17.134;2023-04-09T12:06:04;9.90;99.90
12408;DHT22;6268;48.188;17.134;2023-04-09T12:08:34;9.80;99.90
12408;DHT22;6268;48.188;17.134;2023-04-09T12:11:07;9.80;99.90
12408;DHT22;6268;48.188;17.134;2023-04-09T12:13:37;9.80;99.90
12408;DHT22;6268;48.188;17.134;2023-04-09T12:16:11;9.60;99.90
12408;DHT22;6268;48.188;17.134;2023-04-09T12:18:41;9.70;99.90
12408;DHT22;6268;48.188;17.134;2023-04-09T12:21:09;9.60;99.90
12408;DHT22;6268;48.188;17.134;2023-04-09T12:23:38;9.50;99.90
12408;DHT22;6268;48.188;17.134;2023-04-09T12:26:07;9.60;99.90
12408;DHT22;6268;48.188;17.134;2023-04-09T12:28:36;9.60;99.90
12408;DHT22;6268;48.188;17.134;2023-04-09T12:31:09;9.70;99.90
12408;DHT22;6268;48.188;17.134;2023-04-09T12:33:38;9.90;99.90
12408;DHT22;6268;48.188;17.134;2023-04-09T12:36:08;10.10;99.90
12408;DHT22;6268;48.188;17.134;2023-04-09T12:38:37;10.00;99.90
12408;DHT22;6268;48.188;17.134;2023-04-09T12:41:06;10.10;99.90
12408;DHT22;6268;48.188;17.134;2023-04-09T12:43:35;10.30;99.90
12408;DHT22;6268;48.188;17.134;2023-04-09T12:46:05;10.50;99.90
12408;DHT22;6268;48.188;17.134;2023-04-09T12:48:35;10.60;99.90
12408;DHT22;6268;48.188;17.134;2023-04-09T12:51:04;10.60;99.90
12408;DHT22;6268;48.188;17.134;2023-04-09T12:53:33;10.80;99.90
12408;DHT22;6268;48.188;17.134;2023-04-09T12:56:02;10.80;99.90
12408;DHT22;6268;48.188;17.134;2023-04-09T12:58:31;10.90;99.90
12408;DHT22;6268;48.188;17.134;2023-04-09T13:01:00;10.80;99.90
12408;DHT22;6268;48.188;17.134;2023-04-09T13:03:30;10.80;99.90
12408;DHT22;6268;48.188;17.134;2023-04-09T13:06:00;10.90;99.90
12408;DHT22;6268;48.188;17.134;2023-04-09T13:08:29;10.90;99.90
12408;DHT22;6268;48.188;17.134;2023-04-09T13:10:58;10.70;99.90
12408;DHT22;6268;48.188;17.134;2023-04-09T13:13:26;10.60;99.90
12408;DHT22;6268;48.188;17.134;2023-04-09T13:15:55;10.50;99.90
12408;DHT22;6268;48.188;17.134;2023-04-09T13:18:24;10.50;99.90
12408;DHT22;6268;48.188;17.134;2023-04-09T13:20:53;10.70;99.90
12408;DHT22;6268;48.188;17.134;2023-04-09T13:23:23;10.70;99.90
12408;DHT22;6268;48.188;17.134;2023-04-09T13:25:52;10.70;99.90
12408;DHT22;6268;48.188;17.134;2023-04-09T13:28:20;10.40;99.90
12408;DHT22;6268;48.188;17.134;2023-04-09T13:30:49;10.20;99.90
12408;DHT22;6268;48.188;17.134;2023-04-09T13:33:18;10.10;99.90
12408;DHT22;6268;48.188;17.134;2023-04-09T13:35:47;9.90;99.90
12408;DHT22;6268;48.188;17.134;2023-04-09T13:38:17;9.90;99.90
12408;DHT22;6268;48.188;17.134;2023-04-09T13:40:47;10.00;99.90
12408;DHT22;6268;48.188;17.134;2023-04-09T13:43:16;9.90;99.90
12408;DHT22;6268;48.188;17.134;2023-04-09T13:45:45;9.80;99.90
12408;DHT22;6268;48.188;17.134;2023-04-09T13:48:13;9.90;99.90
12408;DHT22;6268;48.188;17.134;2023-04-09T13:50:42;9.90;99.90
12408;DHT22;6268;48.188;17.134;2023-04-09T13:53:11;9.90;99.90
12408;DHT22;6268;48.188;17.134;2023-04-09T13:55:39;10.10;99.90
12408;DHT22;6268;48.188;17.134;2023-04-09T13:58:10;10.30;99.90
12408;DHT22;6268;48.188;17.134;2023-04-09T14:00:38;10.40;99.90
12408;DHT22;6268;48.188;17.134;2023-04-09T14:03:07;10.30;99.90
12408;DHT22;6268;48.188;17.134;2023-04-09T14:05:37;10.20;99.90
12408;DHT22;6268;48.188;17.134;2023-04-09T14:08:06;10.20;99.90
12408;DHT22;6268;48.188;17.134;2023-04-09T14:10:35;10.10;99.90
12408;DHT22;6268;48.188;17.134;2023-04-09T14:13:03;10.00;99.90
12408;DHT22;6268;48.188;17.134;2023-04-09T14:15:34;10.00;99.90
12408;DHT22;6268;48.188;17.134;2023-04-09T14:18:04;10.10;99.90
12408;DHT22;6268;48.188;17.134;2023-04-09T14:20:34;10.10;99.90
12408;DHT22;6268;48.188;17.134;2023-04-09T14:23:04;10.20;99.90
12408;DHT22;6268;48.188;17.134;2023-04-09T14:25:33;10.20;99.90
12408;DHT22;6268;48.188;17.134;2023-04-09T14:28:01;10.30;99.90
12408;DHT22;6268;48.188;17.134;2023-04-09T14:30:30;10.60;99.90
12408;DHT22;6268;48.188;17.134;2023-04-09T14:33:00;10.70;99.90
12408;DHT22;6268;48.188;17.134;2023-04-09T14:35:29;10.70;99.90
12408;DHT22;6268;48.188;17.134;2023-04-09T14:37:58;10.70;99.90
12408;DHT22;6268;48.188;17.134;2023-04-09T14:40:27;10.80;99.90
12408;DHT22;6268;48.188;17.134;2023-04-09T14:42:56;10.90;99.90
12408;DHT22;6268;48.188;17.134;2023-04-09T14:45:25;11.10;99.90
12408;DHT22;6268;48.188;17.134;2023-04-09T14:47:56;11.10;99.90
12408;DHT22;6268;48.188;17.134;2023-04-09T14:50:27;11.00;99.90
12408;DHT22;6268;48.188;17.134;2023-04-09T14:52:57;11.10;99.90
12408;DHT22;6268;48.188;17.134;2023-04-09T14:55:26;11.10;99.90
12408;DHT22;6268;48.188;17.134;2023-04-09T14:57:55;11.00;99.90
12408;DHT22;6268;48.188;17.134;2023-04-09T15:00:24;11.10;99.90
12408;DHT22;6268;48.188;17.134;2023-04-09T15:02:52;11.10;99.90
12408;DHT22;6268;48.188;17.134;2023-04-09T15:05:21;11.00;99.90
12408;DHT22;6268;48.188;17.134;2023-04-09T15:07:52;11.10;99.90
12408;DHT22;6268;48.188;17.134;2023-04-09T15:10:21;11.10;99.90
12408;DHT22;6268;48.188;17.134;2023-04-09T15:12:50;11.00;99.90
12408;DHT22;6268;48.188;17.134;2023-04-09T15:15:19;11.00;99.90
12408;DHT22;6268;48.188;17.134;2023-04-09T15:17:47;10.90;99.90
12408;DHT22;6268;48.188;17.134;2023-04-09T15:20:16;11.00;99.90
12408;DHT22;6268;48.188;17.134;2023-04-09T15:22:45;10.90;99.90
12408;DHT22;6268;48.188;17.134;2023-04-09T15:25:15;11.00;99.90
12408;DHT22;6268;48.188;17.134;2023-04-09T15:27:44;11.10;99.90
12408;DHT22;6268;48.188;17.134;2023-04-09T15:30:13;11.10;99.90
12408;DHT22;6268;48.188;17.134;2023-04-09T15:32:42;11.10;99.90
12408;DHT22;6268;48.188;17.134;2023-04-09T15:35:11;11.10;99.90
12408;DHT22;6268;48.188;17.134;2023-04-09T15:37:45;11.20;99.90
12408;DHT22;6268;48.188;17.134;2023-04-09T15:40:15;11.20;99.90
12408;DHT22;6268;48.188;17.134;2023-04-09T15:42:44;11.00;99.90
12408;DHT22;6268;48.188;17.134;2023-04-09T15:45:13;11.00;99.90
12408;DHT22;6268;48.188;17.134;2023-04-09T15:47:43;11.10;99.90
12408;DHT22;6268;48.188;17.134;2023-04-09T15:50:12;11.00;99.90
12408;DHT22;6268;48.188;17.134;2023-04-09T15:52:41;10.70;99.90
12408;DHT22;6268;48.188;17.134;2023-04-09T15:55:10;10.50;99.90
12408;DHT22;6268;48.188;17.134;2023-04-09T15:57:40;10.30;99.90
12408;DHT22;6268;48.188;17.134;2023-04-09T16:00:12;10.30;99.90
12408;DHT22;6268;48.188;17.134;2023-04-09T16:02:41;10.30;99.90